createdAt,value
2023-03-12T00:00:16.940Z,0.52
2023-03-12T00:02:47.387Z,0.54
2023-03-12T00:05:14.123Z,0.54
2023-03-12T00:07:40.574Z,0.54
2023-03-12T00:10:07.861Z,0.54
2023-03-12T00:12:34.733Z,0.55
2023-03-12T00:15:03.103Z,0.60
2023-03-12T00:17:34.848Z,0.63
2023-03-12T00:20:04.472Z,0.66
2023-03-12T00:22:31.039Z,0.72
2023-03-12T00:24:58.280Z,0.74
2023-03-12T00:27:26.218Z,0.78
2023-03-12T00:29:53.220Z,0.77
2023-03-12T00:32:20.264Z,0.79
2023-03-12T00:34:55.085Z,0.82
2023-03-12T00:37:22.652Z,0.82
2023-03-12T00:39:49.338Z,0.81
2023-03-12T00:42:17.001Z,0.82
2023-03-12T00:44:44.460Z,0.78
2023-03-12T00:47:11.751Z,0.76
2023-03-12T00:49:39.696Z,0.73
2023-03-12T00:52:10.868Z,0.76
2023-03-12T00:54:39.904Z,0.75
2023-03-12T00:57:06.579Z,0.75
2023-03-12T00:59:41.041Z,0.73
2023-03-12T01:04:57.441Z,0.66
2023-03-12T01:12:58.327Z,0.49
2023-03-12T01:15:25.530Z,0.38
2023-03-12T01:17:52.046Z,0.40
2023-03-12T01:20:18.521Z,0.45
2023-03-12T01:22:45.081Z,0.48
2023-03-12T01:25:12.342Z,0.50
2023-03-12T01:27:39.210Z,0.52
2023-03-12T01:30:16.931Z,0.50
2023-03-12T01:32:45.318Z,0.52
2023-03-12T01:35:12.237Z,0.54
2023-03-12T01:37:50.254Z,0.58
2023-03-12T01:40:22.162Z,0.63
2023-03-12T01:43:01.800Z,0.67
2023-03-12T01:46:11.514Z,0.65
2023-03-12T01:48:45.929Z,0.67
2023-03-12T01:51:18.974Z,0.71
2023-03-12T01:53:50.023Z,0.72
2023-03-12T01:56:20.045Z,0.74
2023-03-12T01:58:56.847Z,0.71
2023-03-12T02:01:29.792Z,0.72
2023-03-12T02:04:00.098Z,0.76
2023-03-12T02:06:34.515Z,0.77
2023-03-12T02:09:03.481Z,0.79
2023-03-12T02:11:29.994Z,0.80
2023-03-12T02:13:56.687Z,0.82
2023-03-12T02:16:23.252Z,0.83
2023-03-12T02:18:51.620Z,0.82
2023-03-12T02:21:24.647Z,0.83
2023-03-12T02:24:19.496Z,0.86
2023-03-12T02:26:46.551Z,0.86
2023-03-12T02:29:13.904Z,0.85
2023-03-12T02:31:48.740Z,0.83
2023-03-12T02:34:15.326Z,0.87
2023-03-12T02:36:44.812Z,0.86
2023-03-12T02:39:13.104Z,0.80
2023-03-12T02:41:42.974Z,0.81
2023-03-12T02:44:16.462Z,0.82
2023-03-12T02:46:46.128Z,0.83
2023-03-12T02:49:14.461Z,0.86
2023-03-12T02:51:42.313Z,0.90
2023-03-12T02:54:09.358Z,0.96
2023-03-12T02:56:36.107Z,1.02
2023-03-12T02:59:04.481Z,1.02
2023-03-12T03:01:34.207Z,1.06
2023-03-12T03:04:05.643Z,1.08
2023-03-12T03:06:32.653Z,1.09
2023-03-12T03:08:59.606Z,1.10
2023-03-12T03:11:26.390Z,1.13
2023-03-12T03:13:53.440Z,1.14
2023-03-12T03:16:21.027Z,1.14
2023-03-12T03:18:47.481Z,1.15
2023-03-12T03:21:16.644Z,1.15
2023-03-12T03:23:48.118Z,1.16
2023-03-12T03:26:16.196Z,1.14
2023-03-12T03:31:08.161Z,1.16
2023-03-12T03:33:36.570Z,1.16
2023-03-12T03:36:03.806Z,1.19
2023-03-12T03:38:31.366Z,1.19
2023-03-12T03:40:58.344Z,1.20
2023-03-12T03:43:24.969Z,1.19
2023-03-12T03:46:03.099Z,1.23
2023-03-12T03:48:29.856Z,1.27
2023-03-12T03:51:04.696Z,1.31
2023-03-12T03:53:31.510Z,1.34
2023-03-12T03:55:58.444Z,1.37
2023-03-12T03:58:25.069Z,1.40
2023-03-12T04:00:51.518Z,1.42
2023-03-12T04:03:18.065Z,1.38
2023-03-12T04:05:45.632Z,1.39
2023-03-12T04:08:13.652Z,1.39
2023-03-12T04:10:40.709Z,1.38
2023-03-12T04:13:07.366Z,1.39
2023-03-12T04:15:33.956Z,1.37
2023-03-12T04:18:00.414Z,1.43
2023-03-12T04:20:26.939Z,1.50
2023-03-12T04:22:53.399Z,1.56
2023-03-12T04:25:20.073Z,1.61
2023-03-12T04:27:46.650Z,1.63
2023-03-12T04:30:13.584Z,1.66
2023-03-12T04:32:40.244Z,1.68
2023-03-12T04:35:06.923Z,1.68
2023-03-12T04:37:34.456Z,1.68
2023-03-12T04:40:03.209Z,1.68
2023-03-12T04:42:29.788Z,1.69
2023-03-12T04:44:56.284Z,1.68
2023-03-12T04:47:22.832Z,1.72
2023-03-12T04:49:49.228Z,1.67
2023-03-12T04:52:17.571Z,1.66
2023-03-12T04:54:46.797Z,1.64
2023-03-12T04:57:14.486Z,1.63
2023-03-12T04:59:40.999Z,1.60
2023-03-12T05:02:07.459Z,1.57
2023-03-12T05:04:34.053Z,1.57
2023-03-12T05:07:00.518Z,1.56
2023-03-12T05:09:26.981Z,1.54
2023-03-12T05:11:53.788Z,1.54
2023-03-12T05:14:20.538Z,1.56
2023-03-12T05:16:47.119Z,1.57
2023-03-12T05:19:13.513Z,1.57
2023-03-12T05:21:49.023Z,1.57
2023-03-12T05:24:16.294Z,1.59
2023-03-12T05:26:42.959Z,1.60
2023-03-12T05:29:09.457Z,1.61
2023-03-12T05:31:36.613Z,1.61
2023-03-12T05:34:05.670Z,1.65
2023-03-12T05:36:32.294Z,1.63
2023-03-12T05:38:58.897Z,1.67
2023-03-12T05:41:29.040Z,1.68
2023-03-12T05:43:56.762Z,1.71
2023-03-12T05:46:27.488Z,1.72
2023-03-12T05:48:53.911Z,1.71
2023-03-12T05:51:21.252Z,1.73
2023-03-12T05:53:48.166Z,1.74
2023-03-12T05:56:17.784Z,1.79
2023-03-12T05:58:44.826Z,1.83
2023-03-12T06:01:14.666Z,1.83
2023-03-12T06:03:42.970Z,1.86
2023-03-12T06:06:09.914Z,1.92
2023-03-12T06:08:36.570Z,1.91
2023-03-12T06:11:03.542Z,1.91
2023-03-12T06:13:30.182Z,1.91
2023-03-12T06:16:03.278Z,1.92
2023-03-12T06:18:29.850Z,1.91
2023-03-12T06:20:56.431Z,1.90
2023-03-12T06:23:22.853Z,1.89
2023-03-12T06:25:49.287Z,1.90
2023-03-12T06:28:15.835Z,1.87
2023-03-12T06:30:44.954Z,1.87
2023-03-12T06:33:11.441Z,1.86
2023-03-12T06:35:37.940Z,1.86
2023-03-12T06:38:04.583Z,1.83
2023-03-12T06:40:31.061Z,1.83
2023-03-12T06:42:57.418Z,1.82
2023-03-12T06:45:23.926Z,1.81
2023-03-12T06:47:50.363Z,1.83
2023-03-12T06:50:16.893Z,1.81
2023-03-12T06:52:43.504Z,1.80
2023-03-12T06:55:10.242Z,1.79
2023-03-12T06:57:37.088Z,1.79
2023-03-12T07:00:05.213Z,1.80
2023-03-12T07:02:31.699Z,1.80
2023-03-12T07:05:01.404Z,1.79
2023-03-12T07:07:27.981Z,1.80
2023-03-12T07:09:54.457Z,1.80
2023-03-12T07:12:21.016Z,1.82
2023-03-12T07:14:50.198Z,1.82
2023-03-12T07:17:16.741Z,1.84
2023-03-12T07:19:43.298Z,1.84
2023-03-12T07:22:09.677Z,1.87
2023-03-12T07:24:37.371Z,1.90
2023-03-12T07:27:04.132Z,1.90
2023-03-12T07:29:30.794Z,1.90
2023-03-12T07:31:57.230Z,1.92
2023-03-12T07:34:23.806Z,1.92
2023-03-12T07:36:50.807Z,1.93
2023-03-12T07:39:17.868Z,1.96
2023-03-12T07:41:44.713Z,1.97
2023-03-12T07:44:11.230Z,1.99
2023-03-12T07:46:37.832Z,2.02
2023-03-12T07:49:04.899Z,2.06
2023-03-12T07:51:31.581Z,2.07
2023-03-12T07:53:58.365Z,2.10
2023-03-12T07:56:25.097Z,2.13
2023-03-12T07:58:51.794Z,2.14
2023-03-12T08:01:18.326Z,2.19
2023-03-12T08:03:45.063Z,2.22
2023-03-12T08:06:11.996Z,2.24
2023-03-12T08:08:41.721Z,2.30
2023-03-12T08:11:09.521Z,2.31
2023-03-12T08:13:36.704Z,2.34
2023-03-12T08:16:03.625Z,2.37
2023-03-12T08:18:30.196Z,2.43
2023-03-12T08:20:56.698Z,2.48
2023-03-12T08:23:23.698Z,2.50
2023-03-12T08:25:51.053Z,2.53
2023-03-12T08:28:18.956Z,2.56
2023-03-12T08:30:50.927Z,2.60
2023-03-12T08:33:17.413Z,2.64
2023-03-12T08:35:44.867Z,2.70
2023-03-12T08:38:11.933Z,2.76
2023-03-12T08:40:38.552Z,2.80
2023-03-12T08:43:04.934Z,2.84
2023-03-12T08:45:31.782Z,2.89
2023-03-12T08:47:58.382Z,2.92
2023-03-12T08:50:29.234Z,2.96
2023-03-12T08:52:56.234Z,3.03
2023-03-12T08:55:22.878Z,3.07
2023-03-12T08:57:49.429Z,3.13
2023-03-12T09:00:23.660Z,3.23
2023-03-12T09:02:52.164Z,3.27
2023-03-12T09:05:19.334Z,3.30
2023-03-12T09:07:45.794Z,3.36
2023-03-12T09:10:12.300Z,3.44
2023-03-12T09:12:38.976Z,3.53
2023-03-12T09:15:06.272Z,3.63
2023-03-12T09:17:32.912Z,3.72
2023-03-12T09:20:00.276Z,3.84
2023-03-12T09:22:26.784Z,4.00
2023-03-12T09:24:53.182Z,4.09
2023-03-12T09:27:19.737Z,4.12
2023-03-12T09:29:59.504Z,4.14
2023-03-12T09:32:27.515Z,4.29
2023-03-12T09:34:54.539Z,4.43
2023-03-12T09:37:23.962Z,4.51
2023-03-12T09:39:51.606Z,4.68
2023-03-12T09:42:47.404Z,4.79
2023-03-12T09:45:29.976Z,4.95
2023-03-12T09:48:02.917Z,4.99
2023-03-12T09:50:34.753Z,5.02
2023-03-12T09:53:03.050Z,5.01
2023-03-12T09:55:37.176Z,5.05
2023-03-12T09:58:04.342Z,5.15
2023-03-12T10:00:34.818Z,5.24
2023-03-12T10:03:12.291Z,5.33
2023-03-12T10:06:04.100Z,5.39
2023-03-12T10:08:33.646Z,5.49
2023-03-12T10:11:09.416Z,5.63
2023-03-12T10:13:51.097Z,5.63
2023-03-12T10:16:40.284Z,5.65
2023-03-12T10:22:34.713Z,5.96
2023-03-12T10:25:40.590Z,5.96
2023-03-12T10:28:17.524Z,6.01
2023-03-12T10:30:51.986Z,6.15
2023-03-12T10:33:19.938Z,6.19
2023-03-12T10:35:47.956Z,6.22
2023-03-12T10:38:26.439Z,6.29
2023-03-12T10:40:52.898Z,6.37
2023-03-12T10:43:19.289Z,6.56
2023-03-12T10:46:12.096Z,6.67
2023-03-12T10:48:38.558Z,6.74
2023-03-12T10:51:12.419Z,6.82
2023-03-12T10:53:45.038Z,6.88
2023-03-12T10:56:18.419Z,7.11
2023-03-12T10:58:47.572Z,7.30
2023-03-12T11:01:26.522Z,7.31
2023-03-12T11:04:08.011Z,7.35
2023-03-12T11:06:37.673Z,7.52
2023-03-12T11:09:17.321Z,7.59
2023-03-12T11:11:45.306Z,7.58
2023-03-12T11:14:22.067Z,7.63
2023-03-12T11:16:50.509Z,7.67
2023-03-12T11:19:32.764Z,7.68
2023-03-12T11:22:04.773Z,7.78
2023-03-12T11:24:31.790Z,7.86
2023-03-12T11:27:25.565Z,7.87
2023-03-12T11:29:53.250Z,7.89
2023-03-12T11:32:42.793Z,7.96
2023-03-12T11:35:19.856Z,7.98
2023-03-12T11:38:17.807Z,8.03
2023-03-12T11:41:02.558Z,8.08
2023-03-12T11:43:52.775Z,8.08
2023-03-12T11:46:50.176Z,8.06
2023-03-12T11:49:49.650Z,8.05
2023-03-12T11:52:45.193Z,8.08
2023-03-12T11:55:21.545Z,8.09
2023-03-12T11:58:17.172Z,8.12
2023-03-12T12:01:10.078Z,8.16
2023-03-12T12:03:54.779Z,8.23
2023-03-12T12:06:53.900Z,8.35
2023-03-12T12:09:39.827Z,8.39
2023-03-12T12:12:19.568Z,8.40
2023-03-12T12:15:12.502Z,8.54
2023-03-12T12:18:00.223Z,8.57
2023-03-12T12:20:43.552Z,8.51
2023-03-12T12:23:17.726Z,8.54
2023-03-12T12:26:07.143Z,8.58
2023-03-12T12:28:37.426Z,8.69
2023-03-12T12:31:16.011Z,8.80
2023-03-12T12:34:19.851Z,8.91
2023-03-12T12:37:19.792Z,9.05
2023-03-12T12:39:55.254Z,9.23
2023-03-12T12:42:26.524Z,9.45
2023-03-12T12:44:58.180Z,9.47
2023-03-12T12:47:40.426Z,9.47
2023-03-12T12:50:12.649Z,9.51
2023-03-12T12:52:39.231Z,9.53
2023-03-12T12:55:21.598Z,9.50
2023-03-12T12:58:00.637Z,9.54
2023-03-12T13:00:43.014Z,9.68
2023-03-12T13:03:17.614Z,9.66
2023-03-12T13:05:47.397Z,9.67
2023-03-12T13:08:40.097Z,9.68
2023-03-12T13:11:26.236Z,9.83
2023-03-12T13:14:05.008Z,9.90
2023-03-12T13:16:43.273Z,9.81
2023-03-12T13:19:16.153Z,9.73
2023-03-12T13:22:17.129Z,9.75
2023-03-12T13:25:20.540Z,9.76
2023-03-12T13:27:58.793Z,9.81
2023-03-12T13:30:34.520Z,9.83
2023-03-12T13:33:04.157Z,9.78
2023-03-12T13:35:38.215Z,9.72
2023-03-12T13:38:15.219Z,9.67
2023-03-12T13:40:56.222Z,9.62
2023-03-12T13:43:41.724Z,9.60
2023-03-12T13:46:27.751Z,9.79
2023-03-12T13:48:59.720Z,10.04
2023-03-12T13:51:26.704Z,10.26
2023-03-12T13:53:58.074Z,10.49
2023-03-12T13:56:33.448Z,10.65
2023-03-12T13:59:03.943Z,10.77
2023-03-12T14:01:43.485Z,10.88
2023-03-12T14:04:25.590Z,10.95
2023-03-12T14:07:22.013Z,11.01
2023-03-12T14:10:18.670Z,11.22
2023-03-12T14:13:13.206Z,11.33
2023-03-12T14:16:01.145Z,11.56
2023-03-12T14:18:31.272Z,11.52
2023-03-12T14:21:08.037Z,11.41
2023-03-12T14:23:56.547Z,11.33
2023-03-12T14:26:33.266Z,11.22
2023-03-12T14:29:15.420Z,11.17
2023-03-12T14:31:43.015Z,11.09
2023-03-12T14:34:18.960Z,11.06
2023-03-12T14:37:12.676Z,11.13
2023-03-12T14:39:58.211Z,11.18
2023-03-12T14:42:34.023Z,11.18
2023-03-12T14:45:10.568Z,11.22
2023-03-12T14:48:00.967Z,11.21
2023-03-12T14:50:36.575Z,11.19
2023-03-12T14:53:28.284Z,11.27
2023-03-12T14:56:38.279Z,11.26
2023-03-12T14:59:37.396Z,11.23
2023-03-12T15:02:16.645Z,11.28
2023-03-12T15:04:49.380Z,11.33
2023-03-12T15:07:27.715Z,11.33
2023-03-12T15:09:54.961Z,11.32
2023-03-12T15:12:57.437Z,11.15
2023-03-12T15:15:27.900Z,11.03
2023-03-12T15:17:59.511Z,10.99
2023-03-12T15:20:30.197Z,10.96
2023-03-12T15:22:57.505Z,10.89
2023-03-12T15:25:30.426Z,10.75
2023-03-12T15:28:03.055Z,10.68
2023-03-12T15:30:32.243Z,10.65
2023-03-12T15:33:06.822Z,10.64
2023-03-12T15:35:43.511Z,10.62
2023-03-12T15:38:19.320Z,10.62
2023-03-12T15:41:00.540Z,10.62
2023-03-12T15:43:27.622Z,10.65
2023-03-12T15:46:08.205Z,10.64
2023-03-12T15:48:40.352Z,10.62
2023-03-12T15:51:33.506Z,10.56
2023-03-12T15:54:16.945Z,10.46
2023-03-12T15:56:54.146Z,10.39
2023-03-12T15:59:32.959Z,10.32
2023-03-12T16:02:03.306Z,10.29
2023-03-12T16:07:37.433Z,10.25
2023-03-12T16:10:05.248Z,10.22
2023-03-12T16:12:32.019Z,10.22
2023-03-12T16:14:59.743Z,10.17
2023-03-12T16:17:34.879Z,10.15
2023-03-12T16:20:10.046Z,10.12
2023-03-12T16:22:36.526Z,10.11
2023-03-12T16:25:04.393Z,10.05
2023-03-12T16:27:33.007Z,10.03
2023-03-12T16:30:00.158Z,10.00
2023-03-12T16:32:26.638Z,9.94
2023-03-12T16:34:53.168Z,9.90
2023-03-12T16:37:20.632Z,9.88
2023-03-12T16:39:48.793Z,9.84
2023-03-12T16:42:24.994Z,9.81
2023-03-12T16:45:03.347Z,9.76
2023-03-12T16:47:30.665Z,9.75
2023-03-12T16:49:57.797Z,9.71
2023-03-12T16:52:32.803Z,9.70
2023-03-12T16:55:10.761Z,9.67
2023-03-12T16:57:44.433Z,9.65
2023-03-12T17:00:47.640Z,9.60
2023-03-12T17:03:49.805Z,9.58
2023-03-12T17:06:22.383Z,9.54
2023-03-12T17:14:23.216Z,9.47
2023-03-12T17:16:58.399Z,9.45
2023-03-12T17:19:25.399Z,9.40
2023-03-12T17:22:13.692Z,9.38
2023-03-12T17:24:44.153Z,9.33
2023-03-12T17:30:19.577Z,9.25
2023-03-12T17:38:54.932Z,9.11
2023-03-12T17:41:26.911Z,9.07
2023-03-12T17:44:04.207Z,9.02
2023-03-12T17:46:58.477Z,9.00
2023-03-12T17:49:46.060Z,8.98
2023-03-12T17:52:19.787Z,8.95
2023-03-12T17:57:30.911Z,8.92
2023-03-12T17:59:57.759Z,8.92
2023-03-12T18:02:24.684Z,8.93
2023-03-12T18:04:52.020Z,8.94
2023-03-12T18:07:26.369Z,8.96
2023-03-12T18:09:54.817Z,8.98
2023-03-12T18:12:23.537Z,8.99
2023-03-12T18:15:19.725Z,8.95
2023-03-12T18:17:50.032Z,8.93
2023-03-12T18:26:05.942Z,8.91
2023-03-12T18:28:43.210Z,8.93
2023-03-12T18:31:19.424Z,8.94
2023-03-12T18:33:46.047Z,8.95
2023-03-12T18:36:13.671Z,8.94
2023-03-12T18:38:43.087Z,8.95
2023-03-12T18:41:12.911Z,8.96
2023-03-12T18:49:13.854Z,8.99
2023-03-12T18:54:25.615Z,8.95
2023-03-12T18:56:58.439Z,8.95
2023-03-12T18:59:52.953Z,8.94
2023-03-12T19:02:28.244Z,8.95
2023-03-12T19:04:59.867Z,8.93
2023-03-12T19:07:36.080Z,8.96
2023-03-12T19:10:10.506Z,8.96
2023-03-12T19:12:50.837Z,8.97
2023-03-12T19:15:18.680Z,8.98
2023-03-12T19:17:45.794Z,9.00
2023-03-12T19:20:23.545Z,8.99
2023-03-12T19:22:50.759Z,9.00
2023-03-12T19:25:23.731Z,8.98
2023-03-12T19:27:57.692Z,9.00
2023-03-12T19:30:44.062Z,8.98
2023-03-12T19:33:16.646Z,8.96
2023-03-12T19:35:43.276Z,8.95
2023-03-12T19:38:09.747Z,8.96
2023-03-12T19:40:38.908Z,8.97
2023-03-12T19:45:48.316Z,8.96
2023-03-12T19:48:17.546Z,8.97
2023-03-12T19:50:54.523Z,8.97
2023-03-12T19:53:29.386Z,9.00
2023-03-12T19:56:22.610Z,9.00
2023-03-12T19:58:50.490Z,9.02
2023-03-12T20:01:20.868Z,9.00
2023-03-12T20:04:02.600Z,9.00
2023-03-12T20:06:30.096Z,8.98
2023-03-12T20:09:17.535Z,8.97
2023-03-12T20:11:47.341Z,8.98
2023-03-12T20:14:29.023Z,8.98
2023-03-12T20:17:33.594Z,8.97
2023-03-12T20:26:04.584Z,8.93
2023-03-12T20:28:38.484Z,8.92
2023-03-12T20:33:56.752Z,8.89
2023-03-12T20:36:24.914Z,8.88
2023-03-12T20:41:42.728Z,8.86
2023-03-12T20:44:38.756Z,8.85
2023-03-12T20:47:09.799Z,8.85
2023-03-12T20:49:43.743Z,8.83
2023-03-12T20:52:15.272Z,8.82
2023-03-12T20:57:53.511Z,8.85
2023-03-12T21:00:21.783Z,8.89
2023-03-12T21:02:49.543Z,8.90
2023-03-12T21:05:17.736Z,8.87
2023-03-12T21:07:54.989Z,8.89
2023-03-12T21:10:46.938Z,8.92
2023-03-12T21:13:22.950Z,8.94
2023-03-12T21:15:54.847Z,8.89
2023-03-12T21:18:25.755Z,8.85
2023-03-12T21:20:52.847Z,8.88
2023-03-12T21:26:09.337Z,8.88
2023-03-12T21:28:37.776Z,8.90
2023-03-12T21:31:22.442Z,8.91
2023-03-12T21:33:56.602Z,8.88
2023-03-12T21:36:28.809Z,8.89
2023-03-12T21:39:23.175Z,8.88
2023-03-12T21:44:49.859Z,8.87
2023-03-12T21:47:16.344Z,8.88
2023-03-12T21:49:43.757Z,8.85
2023-03-12T21:52:18.044Z,8.83
2023-03-12T21:54:48.367Z,8.82
2023-03-12T21:57:20.073Z,8.80
2023-03-12T21:59:51.792Z,8.80
2023-03-12T22:02:18.870Z,8.77
2023-03-12T22:04:52.802Z,8.73
2023-03-12T22:07:19.630Z,8.70
2023-03-12T22:09:49.698Z,8.68
2023-03-12T22:12:19.713Z,8.65
2023-03-12T22:15:06.495Z,8.64
2023-03-12T22:17:34.895Z,8.62
2023-03-12T22:20:03.738Z,8.61
2023-03-12T22:22:36.610Z,8.62
2023-03-12T22:25:03.336Z,8.63
2023-03-12T22:27:45.693Z,8.60
2023-03-12T22:30:15.872Z,8.62
2023-03-12T22:33:03.717Z,8.60
2023-03-12T22:35:50.509Z,8.60
2023-03-12T22:38:24.359Z,8.58
2023-03-12T22:40:56.061Z,8.54
2023-03-12T22:46:13.741Z,8.51
2023-03-12T22:48:56.322Z,8.50
2023-03-12T22:51:28.485Z,8.50
2023-03-12T22:53:56.216Z,8.47
2023-03-12T22:56:24.344Z,8.45
2023-03-12T22:58:53.178Z,8.43
2023-03-12T23:01:22.009Z,8.41
2023-03-12T23:03:50.932Z,8.41
2023-03-12T23:09:12.668Z,8.38
2023-03-12T23:11:41.145Z,8.38
2023-03-12T23:14:08.447Z,8.39
2023-03-12T23:16:40.181Z,8.40
2023-03-12T23:19:07.067Z,8.38
2023-03-12T23:21:41.214Z,8.39
2023-03-12T23:24:21.017Z,8.37
2023-03-12T23:26:49.710Z,8.32
2023-03-12T23:29:21.779Z,8.28
2023-03-12T23:34:35.832Z,8.22
2023-03-12T23:37:15.347Z,8.20
2023-03-12T23:39:54.035Z,8.15
2023-03-12T23:42:21.791Z,8.13
2023-03-12T23:44:56.114Z,8.10
2023-03-12T23:47:22.886Z,8.06
2023-03-12T23:49:49.754Z,8.07
2023-03-12T23:52:28.493Z,8.08
2023-03-12T23:54:58.535Z,8.07
